Biggsville, Illinois
Current Conditions -  °F | °C
As of 12:16 AM on Sunday 21 Dec 2014 (Local Time) from KBRL Reporting Station
Haze Haze  
Wind Chill: -2°   Ceiling: 3300
Heat Index:   Visibility: 5mi
Dew Point:   Wind: 9mph
Humidity: 93%   Direction: 160°SSE
Pressure: 30.16"   Gusts: NA
Location:  40.85°N, 90.86°W
Report Text: KBRL 210616Z AUTO 16008KT 5SM BR SCT013 OVC033 02/01 A3016 RMK AO2 T00220011
Loading
Personal Weather Stations






























Interactive Weather Map New forecast layout! Learn more

10-Day Weather Forecast

Advertisements
Track Severe Weather on mobile